sensor_id;sensor_type;location;lat;lon;timestamp;pressure;altitude;pressure_sealevel;temperature;humidity
77011;BME280;65945;53.148;17.956;2023-04-22T00:01:18;101254.39;;;5.23;56.73
77011;BME280;65945;53.148;17.956;2023-04-22T00:03:44;101257.94;;;5.18;56.87
77011;BME280;65945;53.148;17.956;2023-04-22T00:06:12;101255.77;;;5.13;57.00
77011;BME280;65945;53.148;17.956;2023-04-22T00:08:39;101248.02;;;5.09;57.35
77011;BME280;65945;53.148;17.956;2023-04-22T00:11:05;101243.55;;;5.05;57.88
77011;BME280;65945;53.148;17.956;2023-04-22T00:13:32;101241.77;;;5.01;57.55
77011;BME280;65945;53.148;17.956;2023-04-22T00:15:58;101239.34;;;4.97;58.06
77011;BME280;65945;53.148;17.956;2023-04-22T00:18:25;101236.45;;;4.91;57.84
77011;BME280;65945;53.148;17.956;2023-04-22T00:20:52;101237.84;;;4.84;58.08
77011;BME280;65945;53.148;17.956;2023-04-22T00:23:19;101233.62;;;4.79;58.09
77011;BME280;65945;53.148;17.956;2023-04-22T00:25:46;101234.95;;;4.73;58.50
77011;BME280;65945;53.148;17.956;2023-04-22T00:28:12;101231.41;;;4.65;58.53
77011;BME280;65945;53.148;17.956;2023-04-22T00:30:39;101232.45;;;4.58;59.03
77011;BME280;65945;53.148;17.956;2023-04-22T00:33:05;101229.77;;;4.50;59.04
77011;BME280;65945;53.148;17.956;2023-04-22T00:35:32;101225.91;;;4.43;58.95
77011;BME280;65945;53.148;17.956;2023-04-22T00:37:59;101228.20;;;4.37;59.16
77011;BME280;65945;53.148;17.956;2023-04-22T00:40:25;101228.99;;;4.32;59.16
77011;BME280;65945;53.148;17.956;2023-04-22T00:42:53;101226.81;;;4.28;59.57
77011;BME280;65945;53.148;17.956;2023-04-22T00:45:21;101223.29;;;4.23;60.07
77011;BME280;65945;53.148;17.956;2023-04-22T00:47:47;101217.93;;;4.18;60.06
77011;BME280;65945;53.148;17.956;2023-04-22T00:50:14;101217.27;;;4.14;59.98
77011;BME280;65945;53.148;17.956;2023-04-22T00:52:41;101216.29;;;4.09;60.02
77011;BME280;65945;53.148;17.956;2023-04-22T00:55:08;101216.27;;;4.05;60.48
77011;BME280;65945;53.148;17.956;2023-04-22T00:57:35;101216.82;;;4.01;60.43
77011;BME280;65945;53.148;17.956;2023-04-22T01:00:04;101215.61;;;3.98;60.79
77011;BME280;65945;53.148;17.956;2023-04-22T01:02:31;101213.65;;;3.95;60.57
77011;BME280;65945;53.148;17.956;2023-04-22T01:04:58;101213.96;;;3.92;60.89
77011;BME280;65945;53.148;17.956;2023-04-22T01:07:25;101215.22;;;3.90;60.92
77011;BME280;65945;53.148;17.956;2023-04-22T01:09:52;101211.54;;;3.88;61.23
77011;BME280;65945;53.148;17.956;2023-04-22T01:12:18;101214.73;;;3.88;61.32
77011;BME280;65945;53.148;17.956;2023-04-22T01:14:45;101215.73;;;3.85;61.13
77011;BME280;65945;53.148;17.956;2023-04-22T01:17:12;101214.77;;;3.83;61.49
77011;BME280;65945;53.148;17.956;2023-04-22T01:19:40;101214.78;;;3.82;61.63
77011;BME280;65945;53.148;17.956;2023-04-22T01:22:08;101216.54;;;3.81;62.06
77011;BME280;65945;53.148;17.956;2023-04-22T01:24:38;101212.32;;;3.80;62.11
77011;BME280;65945;53.148;17.956;2023-04-22T01:27:05;101214.50;;;3.80;62.13
77011;BME280;65945;53.148;17.956;2023-04-22T01:29:31;101218.90;;;3.79;62.38
77011;BME280;65945;53.148;17.956;2023-04-22T01:31:58;101219.57;;;3.77;62.27
77011;BME280;65945;53.148;17.956;2023-04-22T01:34:27;101218.70;;;3.75;62.22
77011;BME280;65945;53.148;17.956;2023-04-22T01:36:55;101219.40;;;3.72;62.51
77011;BME280;65945;53.148;17.956;2023-04-22T01:39:21;101216.52;;;3.66;62.90
77011;BME280;65945;53.148;17.956;2023-04-22T01:41:48;101218.42;;;3.60;62.79
77011;BME280;65945;53.148;17.956;2023-04-22T01:44:15;101217.87;;;3.56;62.78
77011;BME280;65945;53.148;17.956;2023-04-22T01:46:42;101214.89;;;3.54;62.77
77011;BME280;65945;53.148;17.956;2023-04-22T01:49:08;101216.20;;;3.51;63.02
77011;BME280;65945;53.148;17.956;2023-04-22T01:51:35;101210.63;;;3.45;63.19
77011;BME280;65945;53.148;17.956;2023-04-22T01:54:02;101208.46;;;3.38;63.08
77011;BME280;65945;53.148;17.956;2023-04-22T01:56:29;101206.69;;;3.33;63.48
77011;BME280;65945;53.148;17.956;2023-04-22T01:58:56;101208.09;;;3.28;63.37
77011;BME280;65945;53.148;17.956;2023-04-22T02:01:23;101211.11;;;3.24;63.69
77011;BME280;65945;53.148;17.956;2023-04-22T02:03:50;101207.27;;;3.20;64.12
77011;BME280;65945;53.148;17.956;2023-04-22T02:06:16;101203.58;;;3.15;64.14
77011;BME280;65945;53.148;17.956;2023-04-22T02:08:43;101201.67;;;3.12;64.03
77011;BME280;65945;53.148;17.956;2023-04-22T02:11:09;101202.23;;;3.10;64.41
77011;BME280;65945;53.148;17.956;2023-04-22T02:13:37;101201.61;;;3.09;64.51
77011;BME280;65945;53.148;17.956;2023-04-22T02:16:04;101199.14;;;3.09;64.54
77011;BME280;65945;53.148;17.956;2023-04-22T02:18:31;101198.59;;;3.08;64.59
77011;BME280;65945;53.148;17.956;2023-04-22T02:20:58;101196.23;;;3.09;64.70
77011;BME280;65945;53.148;17.956;2023-04-22T02:23:26;101196.86;;;3.09;64.77
77011;BME280;65945;53.148;17.956;2023-04-22T02:25:54;101194.26;;;3.07;64.79
77011;BME280;65945;53.148;17.956;2023-04-22T02:28:21;101194.25;;;3.03;64.95
77011;BME280;65945;53.148;17.956;2023-04-22T02:30:48;101192.80;;;2.98;64.86
77011;BME280;65945;53.148;17.956;2023-04-22T02:33:14;101194.26;;;2.96;64.82
77011;BME280;65945;53.148;17.956;2023-04-22T02:35:41;101193.55;;;2.93;64.94
77011;BME280;65945;53.148;17.956;2023-04-22T02:38:07;101190.61;;;2.91;65.23
77011;BME280;65945;53.148;17.956;2023-04-22T02:40:34;101192.12;;;2.90;65.09
77011;BME280;65945;53.148;17.956;2023-04-22T02:43:00;101191.98;;;2.89;65.17
77011;BME280;65945;53.148;17.956;2023-04-22T02:45:28;101193.46;;;2.88;65.22
77011;BME280;65945;53.148;17.956;2023-04-22T02:47:55;101192.73;;;2.88;65.31
77011;BME280;65945;53.148;17.956;2023-04-22T02:50:21;101189.80;;;2.85;65.43
77011;BME280;65945;53.148;17.956;2023-04-22T02:52:48;101190.52;;;2.83;65.43
77011;BME280;65945;53.148;17.956;2023-04-22T02:55:14;101188.38;;;2.80;65.54
77011;BME280;65945;53.148;17.956;2023-04-22T02:57:41;101187.88;;;2.79;65.90
77011;BME280;65945;53.148;17.956;2023-04-22T03:00:08;101189.37;;;2.78;65.69
77011;BME280;65945;53.148;17.956;2023-04-22T03:02:36;101186.46;;;2.78;65.69
77011;BME280;65945;53.148;17.956;2023-04-22T03:05:07;101187.11;;;2.78;65.79
77011;BME280;65945;53.148;17.956;2023-04-22T03:07:35;101184.15;;;2.77;65.95
77011;BME280;65945;53.148;17.956;2023-04-22T03:10:02;101184.73;;;2.77;66.13
77011;BME280;65945;53.148;17.956;2023-04-22T03:12:29;101188.33;;;2.77;66.12
77011;BME280;65945;53.148;17.956;2023-04-22T03:14:56;101189.09;;;2.74;66.19
77011;BME280;65945;53.148;17.956;2023-04-22T03:17:24;101193.29;;;2.70;66.31
77011;BME280;65945;53.148;17.956;2023-04-22T03:19:51;101191.09;;;2.65;66.16
77011;BME280;65945;53.148;17.956;2023-04-22T03:22:20;101191.51;;;2.61;66.14
77011;BME280;65945;53.148;17.956;2023-04-22T03:24:47;101192.92;;;2.57;66.41
77011;BME280;65945;53.148;17.956;2023-04-22T03:27:14;101191.13;;;2.52;66.92
77011;BME280;65945;53.148;17.956;2023-04-22T03:29:41;101192.30;;;2.48;66.81
77011;BME280;65945;53.148;17.956;2023-04-22T03:32:07;101190.00;;;2.45;66.87
77011;BME280;65945;53.148;17.956;2023-04-22T03:34:35;101189.19;;;2.43;66.93
77011;BME280;65945;53.148;17.956;2023-04-22T03:37:01;101189.54;;;2.41;67.02
77011;BME280;65945;53.148;17.956;2023-04-22T03:39:28;101191.14;;;2.39;67.09
77011;BME280;65945;53.148;17.956;2023-04-22T03:41:55;101190.05;;;2.38;67.35
77011;BME280;65945;53.148;17.956;2023-04-22T03:44:22;101191.38;;;2.37;67.11
77011;BME280;65945;53.148;17.956;2023-04-22T03:46:49;101195.81;;;2.36;67.29
77011;BME280;65945;53.148;17.956;2023-04-22T03:49:20;101196.63;;;2.34;67.10
77011;BME280;65945;53.148;17.956;2023-04-22T03:51:46;101193.88;;;2.35;67.42
77011;BME280;65945;53.148;17.956;2023-04-22T03:54:16;101192.17;;;2.37;67.70
77011;BME280;65945;53.148;17.956;2023-04-22T03:56:49;101196.66;;;2.40;67.65
77011;BME280;65945;53.148;17.956;2023-04-22T03:59:16;101194.47;;;2.43;67.91
77011;BME280;65945;53.148;17.956;2023-04-22T04:01:49;101194.35;;;2.48;67.87
77011;BME280;65945;53.148;17.956;2023-04-22T04:04:18;101193.73;;;2.52;67.88
77011;BME280;65945;53.148;17.956;2023-04-22T04:06:51;101194.30;;;2.57;67.72
77011;BME280;65945;53.148;17.956;2023-04-22T04:09:18;101192.91;;;2.62;67.61
77011;BME280;65945;53.148;17.956;2023-04-22T04:11:45;101188.69;;;2.66;67.57
77011;BME280;65945;53.148;17.956;2023-04-22T04:14:12;101187.20;;;2.70;67.57
77011;BME280;65945;53.148;17.956;2023-04-22T04:16:43;101186.27;;;2.76;67.45
77011;BME280;65945;53.148;17.956;2023-04-22T04:19:14;101184.31;;;2.81;67.55
77011;BME280;65945;53.148;17.956;2023-04-22T04:21:41;101180.39;;;2.86;67.55
77011;BME280;65945;53.148;17.956;2023-04-22T04:24:08;101180.31;;;2.91;67.54
77011;BME280;65945;53.148;17.956;2023-04-22T04:26:38;101181.49;;;2.97;67.52
77011;BME280;65945;53.148;17.956;2023-04-22T04:29:12;101179.61;;;3.03;67.60
77011;BME280;65945;53.148;17.956;2023-04-22T04:31:40;101182.20;;;3.07;67.54
77011;BME280;65945;53.148;17.956;2023-04-22T04:34:07;101179.98;;;3.10;67.31
77011;BME280;65945;53.148;17.956;2023-04-22T04:36:35;101179.77;;;3.17;67.41
77011;BME280;65945;53.148;17.956;2023-04-22T04:39:22;101182.79;;;3.27;67.19
77011;BME280;65945;53.148;17.956;2023-04-22T04:41:49;101180.83;;;3.36;67.01
77011;BME280;65945;53.148;17.956;2023-04-22T04:44:20;101183.74;;;3.46;67.27
77011;BME280;65945;53.148;17.956;2023-04-22T04:46:52;101184.88;;;3.55;66.95
77011;BME280;65945;53.148;17.956;2023-04-22T04:49:20;101187.83;;;3.62;67.05
77011;BME280;65945;53.148;17.956;2023-04-22T04:51:57;101190.90;;;3.68;67.21
77011;BME280;65945;53.148;17.956;2023-04-22T04:54:24;101184.30;;;3.75;66.98
77011;BME280;65945;53.148;17.956;2023-04-22T04:56:51;101179.09;;;3.86;66.98
77011;BME280;65945;53.148;17.956;2023-04-22T04:59:18;101177.98;;;3.97;66.59
77011;BME280;65945;53.148;17.956;2023-04-22T05:01:44;101181.94;;;4.09;66.40
77011;BME280;65945;53.148;17.956;2023-04-22T05:04:12;101179.15;;;4.22;65.68
77011;BME280;65945;53.148;17.956;2023-04-22T05:06:40;101177.73;;;4.34;65.61
77011;BME280;65945;53.148;17.956;2023-04-22T05:09:07;101178.21;;;4.47;65.05
77011;BME280;65945;53.148;17.956;2023-04-22T05:11:34;101180.02;;;4.59;65.10
77011;BME280;65945;53.148;17.956;2023-04-22T05:14:02;101180.80;;;4.73;64.59
77011;BME280;65945;53.148;17.956;2023-04-22T05:16:33;101183.16;;;4.86;64.24
77011;BME280;65945;53.148;17.956;2023-04-22T05:19:00;101182.65;;;4.99;64.15
77011;BME280;65945;53.148;17.956;2023-04-22T05:21:27;101185.95;;;5.14;63.85
77011;BME280;65945;53.148;17.956;2023-04-22T05:23:53;101183.54;;;5.29;63.42
77011;BME280;65945;53.148;17.956;2023-04-22T05:26:20;101184.98;;;5.44;63.28
77011;BME280;65945;53.148;17.956;2023-04-22T05:28:48;101186.10;;;5.58;63.12
77011;BME280;65945;53.148;17.956;2023-04-22T05:31:15;101185.00;;;5.75;62.88
77011;BME280;65945;53.148;17.956;2023-04-22T05:33:42;101184.92;;;5.89;62.37
77011;BME280;65945;53.148;17.956;2023-04-22T05:36:09;101185.37;;;6.04;62.37
77011;BME280;65945;53.148;17.956;2023-04-22T05:38:36;101185.63;;;6.20;62.29
77011;BME280;65945;53.148;17.956;2023-04-22T05:41:02;101184.90;;;6.34;61.89
77011;BME280;65945;53.148;17.956;2023-04-22T05:43:29;101185.58;;;6.48;61.40
77011;BME280;65945;53.148;17.956;2023-04-22T05:46:05;101187.13;;;6.64;61.40
77011;BME280;65945;53.148;17.956;2023-04-22T05:48:33;101189.59;;;6.80;61.50
77011;BME280;65945;53.148;17.956;2023-04-22T05:51:02;101181.94;;;6.95;60.98
77011;BME280;65945;53.148;17.956;2023-04-22T05:53:29;101182.41;;;7.11;61.10
77011;BME280;65945;53.148;17.956;2023-04-22T05:55:56;101180.48;;;7.28;60.78
77011;BME280;65945;53.148;17.956;2023-04-22T05:58:23;101181.89;;;7.45;59.99
77011;BME280;65945;53.148;17.956;2023-04-22T06:00:53;101183.73;;;7.60;59.74
77011;BME280;65945;53.148;17.956;2023-04-22T06:03:38;101179.51;;;7.78;59.62
77011;BME280;65945;53.148;17.956;2023-04-22T06:06:05;101179.75;;;7.93;59.39
77011;BME280;65945;53.148;17.956;2023-04-22T06:08:32;101172.27;;;8.10;59.31
77011;BME280;65945;53.148;17.956;2023-04-22T06:10:59;101175.95;;;8.27;58.87
77011;BME280;65945;53.148;17.956;2023-04-22T06:13:27;101173.54;;;8.43;58.58
77011;BME280;65945;53.148;17.956;2023-04-22T06:15:54;101175.85;;;8.60;58.58
77011;BME280;65945;53.148;17.956;2023-04-22T06:18:21;101176.86;;;8.76;58.14
77011;BME280;65945;53.148;17.956;2023-04-22T06:20:48;101175.48;;;8.93;57.79
77011;BME280;65945;53.148;17.956;2023-04-22T06:23:15;101169.50;;;9.11;57.70
77011;BME280;65945;53.148;17.956;2023-04-22T06:25:42;101168.35;;;9.27;57.05
77011;BME280;65945;53.148;17.956;2023-04-22T06:28:09;101168.44;;;9.45;56.71
77011;BME280;65945;53.148;17.956;2023-04-22T06:30:35;101167.36;;;9.60;56.69
77011;BME280;65945;53.148;17.956;2023-04-22T06:33:02;101168.61;;;9.77;56.49
77011;BME280;65945;53.148;17.956;2023-04-22T06:35:29;101166.73;;;9.94;55.64
77011;BME280;65945;53.148;17.956;2023-04-22T06:37:55;101165.07;;;10.11;55.37
77011;BME280;65945;53.148;17.956;2023-04-22T06:40:24;101162.30;;;10.27;53.97
77011;BME280;65945;53.148;17.956;2023-04-22T06:43:07;101162.07;;;10.42;53.82
77011;BME280;65945;53.148;17.956;2023-04-22T06:45:41;101162.48;;;10.55;54.46
77011;BME280;65945;53.148;17.956;2023-04-22T06:48:22;101161.05;;;10.72;55.01
77011;BME280;65945;53.148;17.956;2023-04-22T06:51:09;101164.45;;;10.91;54.91
77011;BME280;65945;53.148;17.956;2023-04-22T06:53:35;101158.63;;;11.07;54.78
77011;BME280;65945;53.148;17.956;2023-04-22T06:56:03;101160.73;;;11.25;54.23
77011;BME280;65945;53.148;17.956;2023-04-22T06:58:29;101161.92;;;11.41;53.91
77011;BME280;65945;53.148;17.956;2023-04-22T07:00:56;101159.59;;;11.57;53.97
77011;BME280;65945;53.148;17.956;2023-04-22T07:03:23;101161.64;;;11.73;54.05
77011;BME280;65945;53.148;17.956;2023-04-22T07:05:59;101158.98;;;11.90;53.51
77011;BME280;65945;53.148;17.956;2023-04-22T07:08:26;101159.64;;;12.04;53.32
77011;BME280;65945;53.148;17.956;2023-04-22T07:10:52;101164.11;;;12.19;52.84
77011;BME280;65945;53.148;17.956;2023-04-22T07:13:41;101161.70;;;12.34;51.79
77011;BME280;65945;53.148;17.956;2023-04-22T07:16:07;101160.52;;;12.42;51.63
77011;BME280;65945;53.148;17.956;2023-04-22T07:18:34;101159.96;;;12.55;52.18
77011;BME280;65945;53.148;17.956;2023-04-22T07:21:01;101159.23;;;12.67;52.33
77011;BME280;65945;53.148;17.956;2023-04-22T07:23:27;101155.27;;;12.79;51.51
77011;BME280;65945;53.148;17.956;2023-04-22T07:25:54;101157.44;;;12.91;51.32
77011;BME280;65945;53.148;17.956;2023-04-22T07:28:21;101156.99;;;13.03;50.63
77011;BME280;65945;53.148;17.956;2023-04-22T07:30:47;101159.88;;;13.16;51.05
77011;BME280;65945;53.148;17.956;2023-04-22T07:33:14;101156.45;;;13.30;51.35
77011;BME280;65945;53.148;17.956;2023-04-22T07:35:41;101154.04;;;13.45;51.61
77011;BME280;65945;53.148;17.956;2023-04-22T07:38:07;101148.61;;;13.59;51.33
77011;BME280;65945;53.148;17.956;2023-04-22T07:40:34;101147.92;;;13.72;50.92
77011;BME280;65945;53.148;17.956;2023-04-22T07:43:00;101151.08;;;13.86;50.70
77011;BME280;65945;53.148;17.956;2023-04-22T07:45:27;101150.89;;;13.99;50.39
77011;BME280;65945;53.148;17.956;2023-04-22T07:47:53;101151.48;;;14.12;50.29
77011;BME280;65945;53.148;17.956;2023-04-22T07:50:20;101149.19;;;14.23;49.96
77011;BME280;65945;53.148;17.956;2023-04-22T07:52:47;101144.14;;;14.33;49.64
77011;BME280;65945;53.148;17.956;2023-04-22T07:55:14;101143.07;;;14.45;49.42
77011;BME280;65945;53.148;17.956;2023-04-22T07:57:40;101143.11;;;14.59;49.13
77011;BME280;65945;53.148;17.956;2023-04-22T08:00:08;101148.73;;;14.72;49.02
77011;BME280;65945;53.148;17.956;2023-04-22T08:02:41;101142.52;;;14.86;48.36
77011;BME280;65945;53.148;17.956;2023-04-22T08:05:09;101144.60;;;14.98;48.41
77011;BME280;65945;53.148;17.956;2023-04-22T08:07:36;101143.42;;;15.10;47.34
77011;BME280;65945;53.148;17.956;2023-04-22T08:10:05;101142.85;;;15.21;47.63
77011;BME280;65945;53.148;17.956;2023-04-22T08:12:32;101144.03;;;15.31;47.62
77011;BME280;65945;53.148;17.956;2023-04-22T08:14:58;101141.38;;;15.42;47.25
77011;BME280;65945;53.148;17.956;2023-04-22T08:17:25;101141.27;;;15.52;46.84
77011;BME280;65945;53.148;17.956;2023-04-22T08:19:52;101137.12;;;15.62;46.68
77011;BME280;65945;53.148;17.956;2023-04-22T08:22:18;101139.50;;;15.69;44.94
77011;BME280;65945;53.148;17.956;2023-04-22T08:24:45;101138.70;;;15.76;46.14
77011;BME280;65945;53.148;17.956;2023-04-22T08:27:12;101135.70;;;15.86;45.14
77011;BME280;65945;53.148;17.956;2023-04-22T08:29:38;101136.98;;;15.92;44.57
77011;BME280;65945;53.148;17.956;2023-04-22T08:32:05;101136.26;;;15.97;45.00
77011;BME280;65945;53.148;17.956;2023-04-22T08:34:31;101134.38;;;16.05;45.32
77011;BME280;65945;53.148;17.956;2023-04-22T08:36:58;101134.45;;;16.14;44.98
77011;BME280;65945;53.148;17.956;2023-04-22T08:39:25;101136.34;;;16.22;45.00
77011;BME280;65945;53.148;17.956;2023-04-22T08:41:52;101136.79;;;16.31;44.50
77011;BME280;65945;53.148;17.956;2023-04-22T08:44:21;101138.84;;;16.40;44.20
77011;BME280;65945;53.148;17.956;2023-04-22T08:46:48;101136.30;;;16.48;44.18
77011;BME280;65945;53.148;17.956;2023-04-22T08:49:15;101135.27;;;16.57;44.14
77011;BME280;65945;53.148;17.956;2023-04-22T08:51:43;101139.85;;;16.65;43.85
77011;BME280;65945;53.148;17.956;2023-04-22T08:54:11;101138.99;;;16.76;43.46
77011;BME280;65945;53.148;17.956;2023-04-22T08:56:42;101131.84;;;16.83;42.98
77011;BME280;65945;53.148;17.956;2023-04-22T08:59:10;101134.70;;;16.87;42.46
77011;BME280;65945;53.148;17.956;2023-04-22T09:01:39;101129.25;;;16.94;42.69
77011;BME280;65945;53.148;17.956;2023-04-22T09:04:08;101129.59;;;17.04;43.02
77011;BME280;65945;53.148;17.956;2023-04-22T09:06:36;101128.84;;;17.16;42.27
77011;BME280;65945;53.148;17.956;2023-04-22T09:09:04;101127.86;;;17.25;42.31
77011;BME280;65945;53.148;17.956;2023-04-22T09:11:31;101126.33;;;17.25;39.91
77011;BME280;65945;53.148;17.956;2023-04-22T09:13:58;101126.17;;;17.25;41.60
77011;BME280;65945;53.148;17.956;2023-04-22T09:16:25;101127.48;;;17.34;41.42
77011;BME280;65945;53.148;17.956;2023-04-22T09:18:52;101118.01;;;17.40;40.17
77011;BME280;65945;53.148;17.956;2023-04-22T09:21:18;101115.53;;;17.41;40.14
77011;BME280;65945;53.148;17.956;2023-04-22T09:23:50;101113.55;;;17.51;41.20
77011;BME280;65945;53.148;17.956;2023-04-22T09:26:21;101110.70;;;17.67;40.81
77011;BME280;65945;53.148;17.956;2023-04-22T09:28:53;101106.45;;;17.77;40.51
77011;BME280;65945;53.148;17.956;2023-04-22T09:31:21;101102.34;;;17.89;40.38
77011;BME280;65945;53.148;17.956;2023-04-22T09:33:53;101099.48;;;18.01;40.13
77011;BME280;65945;53.148;17.956;2023-04-22T09:36:22;101102.33;;;18.10;39.78
77011;BME280;65945;53.148;17.956;2023-04-22T09:38:54;101098.28;;;18.18;39.77
77011;BME280;65945;53.148;17.956;2023-04-22T09:41:35;101096.17;;;18.26;39.38
77011;BME280;65945;53.148;17.956;2023-04-22T09:44:03;101091.28;;;18.34;39.36
77011;BME280;65945;53.148;17.956;2023-04-22T09:46:31;101091.66;;;18.40;38.64
77011;BME280;65945;53.148;17.956;2023-04-22T09:48:59;101087.16;;;18.44;38.80
77011;BME280;65945;53.148;17.956;2023-04-22T09:51:28;101085.53;;;18.48;38.71
77011;BME280;65945;53.148;17.956;2023-04-22T09:56:58;101076.96;;;18.62;38.01
77011;BME280;65945;53.148;17.956;2023-04-22T09:59:28;101079.40;;;18.70;37.91
77011;BME280;65945;53.148;17.956;2023-04-22T10:01:58;101074.27;;;18.73;37.83
77011;BME280;65945;53.148;17.956;2023-04-22T10:04:26;101071.23;;;18.79;37.84
77011;BME280;65945;53.148;17.956;2023-04-22T10:06:53;101069.59;;;18.81;37.33
77011;BME280;65945;53.148;17.956;2023-04-22T10:09:21;101064.77;;;18.82;37.83
77011;BME280;65945;53.148;17.956;2023-04-22T10:11:50;101063.34;;;18.87;37.77
77011;BME280;65945;53.148;17.956;2023-04-22T10:14:18;101064.08;;;18.95;37.76
77011;BME280;65945;53.148;17.956;2023-04-22T10:16:46;101061.25;;;19.02;37.66
77011;BME280;65945;53.148;17.956;2023-04-22T10:19:20;101060.50;;;19.10;37.59
77011;BME280;65945;53.148;17.956;2023-04-22T10:21:52;101059.14;;;19.17;37.35
77011;BME280;65945;53.148;17.956;2023-04-22T10:24:20;101053.89;;;19.25;36.71
77011;BME280;65945;53.148;17.956;2023-04-22T10:26:49;101052.09;;;19.26;35.76
77011;BME280;65945;53.148;17.956;2023-04-22T10:29:18;101052.40;;;19.27;36.18
77011;BME280;65945;53.148;17.956;2023-04-22T10:31:52;101047.42;;;19.33;36.44
77011;BME280;65945;53.148;17.956;2023-04-22T10:34:20;101043.81;;;19.39;36.21
77011;BME280;65945;53.148;17.956;2023-04-22T10:37:05;101044.52;;;19.45;34.88
77011;BME280;65945;53.148;17.956;2023-04-22T10:39:31;101033.23;;;19.33;33.85
77011;BME280;65945;53.148;17.956;2023-04-22T10:44:30;101029.75;;;19.31;35.49
77011;BME280;65945;53.148;17.956;2023-04-22T10:47:09;101027.63;;;19.46;35.39
77011;BME280;65945;53.148;17.956;2023-04-22T10:49:36;101027.05;;;19.59;35.13
77011;BME280;65945;53.148;17.956;2023-04-22T10:52:05;101021.59;;;19.71;34.67
77011;BME280;65945;53.148;17.956;2023-04-22T10:57:12;101023.73;;;19.88;33.74
77011;BME280;65945;53.148;17.956;2023-04-22T10:59:45;101023.30;;;19.92;31.96
77011;BME280;65945;53.148;17.956;2023-04-22T11:02:15;101015.82;;;19.81;31.36
77011;BME280;65945;53.148;17.956;2023-04-22T11:04:42;101019.41;;;19.78;32.87
77011;BME280;65945;53.148;17.956;2023-04-22T11:09:58;101015.55;;;19.85;33.20
77011;BME280;65945;53.148;17.956;2023-04-22T11:15:05;101010.88;;;20.00;33.74
77011;BME280;65945;53.148;17.956;2023-04-22T11:17:33;101006.45;;;20.07;33.48
77011;BME280;65945;53.148;17.956;2023-04-22T11:20:01;101007.21;;;20.09;33.68
77011;BME280;65945;53.148;17.956;2023-04-22T11:22:28;101003.97;;;20.15;33.78
77011;BME280;65945;53.148;17.956;2023-04-22T11:25:00;100997.83;;;20.17;32.83
77011;BME280;65945;53.148;17.956;2023-04-22T11:27:27;100992.02;;;20.07;32.41
77011;BME280;65945;53.148;17.956;2023-04-22T11:30:03;100985.26;;;20.01;32.87
77011;BME280;65945;53.148;17.956;2023-04-22T11:32:30;100984.73;;;20.00;32.53
77011;BME280;65945;53.148;17.956;2023-04-22T11:34:57;100984.89;;;19.93;32.23
77011;BME280;65945;53.148;17.956;2023-04-22T11:37:24;100979.14;;;19.87;32.99
77011;BME280;65945;53.148;17.956;2023-04-22T11:39:50;100975.98;;;19.91;33.13
77011;BME280;65945;53.148;17.956;2023-04-22T11:42:20;100974.34;;;20.00;33.44
77011;BME280;65945;53.148;17.956;2023-04-22T11:44:50;100973.41;;;20.12;33.25
77011;BME280;65945;53.148;17.956;2023-04-22T11:47:17;100965.99;;;20.19;32.87
77011;BME280;65945;53.148;17.956;2023-04-22T11:49:55;100962.90;;;20.23;33.25
77011;BME280;65945;53.148;17.956;2023-04-22T11:52:22;100963.08;;;20.28;32.37
77011;BME280;65945;53.148;17.956;2023-04-22T11:54:49;100966.40;;;20.23;33.14
77011;BME280;65945;53.148;17.956;2023-04-22T11:57:16;100962.67;;;20.29;33.41
77011;BME280;65945;53.148;17.956;2023-04-22T11:59:43;100959.84;;;20.37;33.45
77011;BME280;65945;53.148;17.956;2023-04-22T12:02:09;100962.98;;;20.46;33.18
77011;BME280;65945;53.148;17.956;2023-04-22T12:04:40;100959.93;;;20.53;32.86
77011;BME280;65945;53.148;17.956;2023-04-22T12:07:07;100952.34;;;20.52;31.68
77011;BME280;65945;53.148;17.956;2023-04-22T12:09:34;100951.96;;;20.45;32.17
77011;BME280;65945;53.148;17.956;2023-04-22T12:12:04;100950.79;;;20.46;32.62
77011;BME280;65945;53.148;17.956;2023-04-22T12:14:31;100952.85;;;20.54;32.43
77011;BME280;65945;53.148;17.956;2023-04-22T12:17:02;100949.30;;;20.63;32.68
77011;BME280;65945;53.148;17.956;2023-04-22T12:19:30;100948.09;;;20.72;32.44
77011;BME280;65945;53.148;17.956;2023-04-22T12:21:56;100942.79;;;20.78;32.43
77011;BME280;65945;53.148;17.956;2023-04-22T12:24:27;100941.95;;;20.86;32.44
77011;BME280;65945;53.148;17.956;2023-04-22T12:26:54;100940.58;;;20.95;32.70
77011;BME280;65945;53.148;17.956;2023-04-22T12:29:30;100936.81;;;21.03;32.37
77011;BME280;65945;53.148;17.956;2023-04-22T12:31:56;100934.18;;;21.08;32.18
77011;BME280;65945;53.148;17.956;2023-04-22T12:34:23;100927.66;;;21.11;31.99
77011;BME280;65945;53.148;17.956;2023-04-22T12:36:50;100924.55;;;21.11;31.74
77011;BME280;65945;53.148;17.956;2023-04-22T12:39:16;100922.09;;;21.11;31.38
77011;BME280;65945;53.148;17.956;2023-04-22T12:41:44;100915.13;;;21.04;30.50
77011;BME280;65945;53.148;17.956;2023-04-22T12:44:11;100910.93;;;20.83;30.47
77011;BME280;65945;53.148;17.956;2023-04-22T12:46:38;100908.95;;;20.71;31.45
77011;BME280;65945;53.148;17.956;2023-04-22T12:49:04;100906.50;;;20.74;31.41
77011;BME280;65945;53.148;17.956;2023-04-22T12:51:31;100902.23;;;20.84;31.82
77011;BME280;65945;53.148;17.956;2023-04-22T12:53:58;100905.65;;;20.99;31.59
77011;BME280;65945;53.148;17.956;2023-04-22T12:56:24;100905.23;;;21.14;31.23
77011;BME280;65945;53.148;17.956;2023-04-22T12:58:51;100900.11;;;21.26;30.87
77011;BME280;65945;53.148;17.956;2023-04-22T13:01:18;100900.57;;;21.35;30.19
77011;BME280;65945;53.148;17.956;2023-04-22T13:03:44;100904.21;;;21.40;30.38